This is the latest recevied weather packets stored in our database for station/object SP4LIN-15. If no packets are shown the sender has not sent any weather packets the latest 10 day(s).
| Time | Temp. | Humidity | Pressure | Rain* | Wind** | Luminosity | Snow |
|---|---|---|---|---|---|---|---|
| 1777440154 | 5° C | 68% | 1020.7 hPa | 0 mm | - | - | - |
| 1777439255 | 2.78° C | 75% | 1020.9 hPa | 0 mm | - | - | - |
| 1777438354 | 2.78° C | 75% | 1020.9 hPa | 0 mm | - | - | - |
| 1777437454 | 1.11° C | 80% | 1020.8 hPa | 0 mm | - | - | - |
| 1777436554 | -1.11° C | 84% | 1020.7 hPa | 0 mm | - | - | - |
| 1777435655 | -1.67° C | 85% | 1020.6 hPa | 0 mm | - | - | - |
| 1777434755 | -2.22° C | 84% | 1020.7 hPa | 0 mm | - | - | - |
| 1777433855 | -2.78° C | 83% | 1020.5 hPa | 0 mm | - | - | - |
| 1777432955 | -2.78° C | 83% | 1020.4 hPa | 0 mm | - | - | - |
| 1777432055 | -2.78° C | 83% | 1020.3 hPa | 0 mm | - | - | - |
| 1777431155 | -2.22° C | 82% | 1020.2 hPa | 0 mm | - | - | - |
| 1777430255 | -2.22° C | 83% | 1020 hPa | 0 mm | - | - | - |
| 1777429355 | -2.22° C | 83% | 1019.8 hPa | 0 mm | - | - | - |
| 1777428455 | -1.67° C | 83% | 1019.7 hPa | 0 mm | - | - | - |
| 1777427555 | -1.67° C | 83% | 1019.6 hPa | 0 mm | - | - | - |
| 1777426655 | -1.67° C | 83% | 1019.7 hPa | 0 mm | - | - | - |
| 1777425755 | -1.67° C | 83% | 1019.7 hPa | 0 mm | - | - | - |
| 1777424855 | -1.67° C | 83% | 1019.7 hPa | 0 mm | - | - | - |
| 1777423955 | -1.67° C | 82% | 1019.6 hPa | 0 mm | - | - | - |
| 1777423055 | -1.67° C | 82% | 1019.6 hPa | 0 mm | - | - | - |
| 1777422155 | -1.67° C | 82% | 1019.5 hPa | 0 mm | - | - | - |
| 1777421255 | -1.67° C | 81% | 1019.7 hPa | 0 mm | - | - | - |
| 1777420355 | -1.11° C | 82% | 1019.7 hPa | 0 mm | - | - | - |
| 1777419455 | -1.11° C | 81% | 1019.8 hPa | 0 mm | - | - | - |
| 1777418555 | -0.56° C | 82% | 1019.8 hPa | 0 mm | - | - | - |
* Rain latest hour (hover to see other rain measurements)
** Current wind speed in m/s (hover to see current wind gust speed)